Stations météo

réclame
Mon MeteoGroup
Humain, Belgique (6472): Température de l'air & dewpoint: 18.08.2019 00:00:00 - 24.08.2019 00:00:00 (CEST)Humain, Belgique (6472): Vitesse du vent & gusts: 18.08.2019 00:00:00 - 24.08.2019 00:00:00 (CEST)Humain, Belgique (6472): Direction du vent: 18.08.2019 00:00:00 - 24.08.2019 00:00:00 (CEST)Humain, Belgique (6472): reduced air pressure: 18.08.2019 00:00:00 - 24.08.2019 00:00:00 (CEST)Humain, Belgique (6472): Ensoleillement: 18.08.2019 00:00:00 - 24.08.2019 00:00:00 (CEST)Humain, Belgique (6472): Quantités de précipitations: 18.08.2019 00:00:00 - 24.08.2019 00:00:00 (CEST)
Date & Time tt [°C] td [°C] ff [km/h] ff [knt] fx [km/h] fx [knt] dd ppp [hPa] sd [min] rr [mm]
24.08.2019 00:00:00 17,2 10,6 10 5 14 8 E 1023,4 0 0,0
23.08.2019 23:00:00 19,2 10,4 10 5 15 8 NE 1023,2 0 0,0
23.08.2019 22:00:00 20,9 10,2 11 6 16 8 NE 1023,1 0 0,0
23.08.2019 21:00:00 21,8 10,8 10 5 17 9 NNE 1023,3 33 0,0
23.08.2019 20:00:00 23,3 10,9 11 6 18 10 NE 1023,0 52 0,0
23.08.2019 19:00:00 25,3 9,2 9 5 19 10 NE 1022,8 60 0,0
23.08.2019 18:00:00 25,7 9,5 5 3 19 11 NE 1023,0 60 0,0
23.08.2019 17:00:00 26,0 9,0 9 5 20 11 E 1023,2 60 0,0
23.08.2019 16:00:00 25,9 9,9 8 4 18 10 SE 1023,7 60 0,0
23.08.2019 15:00:00 25,6 10,4 10 6 23 12 SE 1024,2 60 0,0
23.08.2019 14:00:00 24,9 9,9 14 8 24 13 E 1024,7 60 0,0
23.08.2019 13:00:00 24,0 10,1 16 9 26 14 E 1025,3 60 0,0
23.08.2019 12:00:00 22,4 12,9 8 5 13 7 NNE 1026,0 60 0,0
23.08.2019 11:00:00 19,5 12,2 6 3 9 5 N 1026,5 60 0,0
23.08.2019 10:00:00 16,4 11,5 8 4 10 5 NNE 1026,9 60 0,0
23.08.2019 09:00:00 13,7 11,8 4 2 9 5 NNE 1027,2 60 0,0
23.08.2019 08:00:00 11,7 10,3 4 2 8 4 ENE 1027,4 51 0,0
23.08.2019 07:00:00 10,8 9,5 8 5 10 5 E 1027,5 0 0,0
23.08.2019 06:00:00 10,3 8,4 4 2 9 5 E 1027,7 0 0,0
23.08.2019 05:00:00 11,1 9,2 6 3 8 5 E 1027,7 0 0,0
23.08.2019 04:00:00 11,1 9,3 8 4 10 5 ESE 1027,5 0 0,0
23.08.2019 03:00:00 12,7 10,1 5 3 8 4 SW 1027,6 0 0,0
23.08.2019 02:00:00 14,0 10,3 7 4 7 4 S 1027,6 0 0,0
23.08.2019 01:00:00 14,6 10,1 4 2 5 3 S 1027,5 0 0,0
23.08.2019 00:00:00 15,4 10,1 4 2 9 5 ESE 1027,3 0 0,0
22.08.2019 23:00:00 17,8 9,2 6 4 10 5 NE 1026,8 0 0,0
22.08.2019 22:00:00 18,6 9,8 8 4 11 6 NNE 1026,5 0 0,0
22.08.2019 21:00:00 20,1 9,4 6 3 9 5 NNE 1025,9 36 0,0
22.08.2019 20:00:00 22,3 9,9 7 4 8 5 N 1025,3 60 0,0
22.08.2019 19:00:00 23,8 9,2 4 2 9 5 NNW 1025,1 60 0,0
22.08.2019 18:00:00 24,4 8,2 4 2 7 4 NW 1025,0 60 0,0
22.08.2019 17:00:00 23,5 7,6 6 3 11 6 E 1025,2 60 0,0
22.08.2019 16:00:00 23,3 8,1 4 2 20 11 NE 1025,5 60 0,0
22.08.2019 15:00:00 23,0 8,3 4 2 18 10 SSE 1025,9 60 0,0
22.08.2019 14:00:00 22,1 8,1 4 2 19 10 E 1026,2 60 0,0
22.08.2019 13:00:00 21,8 8,9 5 3 14 7 W 1026,5 60 0,0
22.08.2019 12:00:00 20,4 10,6 4 2 7 4 NNW 1026,9 60 0,0
22.08.2019 11:00:00 18,7 11,2 4 2 6 4 N 1027,4 60 0,0
22.08.2019 10:00:00 17,2 10,1 4 2 5 3 SSE 1027,3 60 0,0
22.08.2019 09:00:00 15,7 9,8 4 2 6 3 E 1027,2 60 0,0
22.08.2019 08:00:00 11,8 8,8 4 2 10 5 ENE 1027,4 53 0,0
22.08.2019 07:00:00 10,1 7,4 8 5 10 5 E 1027,3 0 0,0
22.08.2019 06:00:00 11,6 8,4 4 2 8 5 E 1027,0 0 0,0
22.08.2019 05:00:00 12,2 8,0 5 3 9 5 E 1027,3 0 0,0
22.08.2019 04:00:00 11,6 8,1 5 3 8 4 E 1027,3 0 0,0
22.08.2019 03:00:00 11,0 7,5 6 4 10 5 ESE 1027,4 0 0,0
22.08.2019 02:00:00 11,7 8,3 4 2 14 8 ENE 1027,5 0 0,0
22.08.2019 01:00:00 12,4 8,9 9 5 13 7 E 1027,7 0 0,0
22.08.2019 00:00:00 13,7 9,2 5 3 11 6 E 1027,7 0 0,0
21.08.2019 23:00:00 14,4 9,4 10 5 14 7 E 1027,6 0 0,0
21.08.2019 22:00:00 17,3 9,1 10 5 15 8 NE 1027,3 0 0,0
21.08.2019 21:00:00 17,8 8,7 10 5 12 6 NE 1026,9 35 0,0
21.08.2019 20:00:00 19,3 8,5 7 4 9 5 NE 1026,6 60 0,0
21.08.2019 19:00:00 20,7 8,6 4 2 10 5 N 1026,7 60 0,0
21.08.2019 18:00:00 21,3 8,4 4 2 9 5 SSE 1027,1 60 0,0
21.08.2019 17:00:00 21,4 8,8 4 2 14 8 W 1026,9 60 0,0
21.08.2019 16:00:00 20,4 8,5 5 3 14 7 E 1027,5 60 0,0
21.08.2019 15:00:00 20,8 8,5 5 3 25 13 SSW 1027,6 60 0,0
21.08.2019 14:00:00 19,9 8,8 7 4 16 9 W 1028,2 60 0,0
21.08.2019 13:00:00 18,9 8,1 8 5 13 7 W 1029,0 60 0,0
21.08.2019 12:00:00 17,0 10,5 5 3 7 4 WNW 1029,6 60 0,0
21.08.2019 11:00:00 14,6 10,3 4 2 6 3 WNW 1030,0 60 0,0
21.08.2019 10:00:00 12,2 10,5 4 2 6 4 WNW 1030,3 60 0,0
21.08.2019 09:00:00 9,9 9,0 0 0 9 5 N 1030,4 25 0,0
21.08.2019 08:00:00 8,3 7,6 7 4 11 6 E 1030,3 12 0,0
21.08.2019 07:00:00 7,5 6,5 8 4 10 5 E 1030,2 0 0,0
21.08.2019 06:00:00 8,4 7,2 4 2 5 3 S 1029,7 0 0,0
21.08.2019 05:00:00 8,5 7,2 4 2 9 5 SSE 1029,7 0 0,0
21.08.2019 04:00:00 8,4 6,9 8 5 10 5 ESE 1029,7 0 0,0
21.08.2019 03:00:00 9,0 6,9 6 3 8 4 SE 1029,5 0 0,0
21.08.2019 02:00:00 10,0 7,7 7 4 9 5 SSE 1029,5 0 0,0
21.08.2019 01:00:00 11,3 8,3 7 4 11 6 S 1029,0 0 0,0
21.08.2019 00:00:00 12,6 8,3 4 2 9 5 S 1028,6 0 0,0
20.08.2019 23:00:00 14,4 7,7 6 3 8 4 SW 1027,9 0 0,0
20.08.2019 22:00:00 15,1 7,7 5 3 13 7 W 1027,3 0 0,0
20.08.2019 21:00:00 16,1 7,5 8 5 13 7 W 1026,7 29 0,0
20.08.2019 20:00:00 17,6 8,0 7 4 16 8 WNW 1025,9 29 0,0
20.08.2019 19:00:00 17,7 7,1 11 6 24 13 W 1025,7 37 0,0
20.08.2019 18:00:00 18,5 7,9 14 8 24 13 W 1025,0 18 0,0
20.08.2019 17:00:00 19,3 8,1 14 8 31 17 WSW 1024,8 44 0,0
20.08.2019 16:00:00 19,2 8,0 17 9 32 17 W 1024,7 53 0,0
20.08.2019 15:00:00 18,6 9,8 14 8 26 14 WNW 1024,5 34 0,0
20.08.2019 14:00:00 19,0 9,2 7 4 24 13 WSW 1024,1 60 0,0
20.08.2019 13:00:00 17,2 9,1 14 8 22 12 WSW 1024,8 60 0,0
20.08.2019 12:00:00 16,3 9,6 10 5 21 11 WSW 1024,8 60 0,0
20.08.2019 11:00:00 15,0 11,4 6 3 11 6 WSW 1024,5 60 0,0
20.08.2019 10:00:00 13,3 10,7 6 4 10 5 W 1024,4 60 0,0
20.08.2019 09:00:00 11,9 10,5 5 3 9 5 SSE 1024,6 60 0,0
20.08.2019 08:00:00 9,8 8,6 7 4 9 5 SSE 1024,4 28 0,0
20.08.2019 07:00:00 9,5 8,1 6 3 10 5 S 1024,0 0 0,0
20.08.2019 06:00:00 9,2 7,8 7 4 9 5 SSE 1023,5 0 0,0
20.08.2019 05:00:00 10,2 8,7 5 3 9 5 S 1023,3 0 0,0
20.08.2019 04:00:00 10,4 8,7 5 3 8 4 S 1023,3 0 0,0
20.08.2019 03:00:00 10,4 8,3 8 5 11 6 SSE 1023,2 0 0,0
20.08.2019 02:00:00 11,6 8,3 4 2 9 5 SSE 1023,1 0 0,0
20.08.2019 01:00:00 12,2 8,5 6 3 8 5 SSE 1023,1 0 0,0
20.08.2019 00:00:00 13,9 8,4 5 3 12 6 SSW 1022,2 0 0,0
19.08.2019 23:00:00 14,9 8,7 9 5 14 8 W 1021,7 0 0,0
19.08.2019 22:00:00 15,6 8,1 10 5 13 7 SW 1021,1 0 0,0
19.08.2019 21:00:00 16,4 7,8 10 5 18 10 SW 1020,3 8 0,0
19.08.2019 20:00:00 17,7 7,2 14 8 29 16 SW 1019,6 33 0,0
19.08.2019 19:00:00 19,3 7,0 18 10 35 19 WSW 1019,3 56 0,0
19.08.2019 18:00:00 20,1 7,2 19 11 35 19 WSW 1019,1 60 0,0
19.08.2019 17:00:00 19,7 8,9 18 10 31 17 SW 1019,0 26 0,0
19.08.2019 16:00:00 18,5 8,4 21 11 35 19 WSW 1019,1 26 0,0
19.08.2019 15:00:00 18,7 7,9 23 13 41 22 WSW 1018,9 40 0,0
19.08.2019 14:00:00 18,5 7,3 22 12 40 22 WSW 1018,6 48 0,0
19.08.2019 13:00:00 18,8 9,3 22 12 36 19 SW 1018,3 59 0,0
19.08.2019 12:00:00 17,8 10,1 19 10 31 17 SW 1018,1 60 0,0
19.08.2019 11:00:00 16,2 10,9 16 9 25 13 SW 1018,1 60 0,0
19.08.2019 10:00:00 14,3 11,1 12 6 21 12 SW 1018,0 60 0,0
19.08.2019 09:00:00 12,9 10,7 12 7 18 10 SW 1017,9 60 0,0
19.08.2019 08:00:00 11,3 9,9 11 6 15 8 SSW 1017,9 55 0,0
19.08.2019 07:00:00 10,5 9,2 11 6 15 8 SW 1017,2 0 0,0
19.08.2019 06:00:00 10,2 8,9 10 5 14 7 S 1017,0 0 0,0
19.08.2019 05:00:00 10,7 9,0 10 5 18 10 SSW 1016,3 0 0,0
19.08.2019 04:00:00 12,3 10,1 11 6 16 8 SW 1016,0 0 0,0
19.08.2019 03:00:00 12,4 10,5 6 3 9 5 SSW 1015,9 0 0,0
19.08.2019 02:00:00 12,8 11,2 4 2 11 6 S 1015,4 0 0,0
19.08.2019 01:00:00 12,6 9,4 7 4 14 7 SSW 1014,6 0 0,0
19.08.2019 00:00:00 14,0 9,7 7 4 11 6 SW 1014,0 0 0,0
18.08.2019 23:00:00 14,5 10,3 7 4 22 12 W 1013,5 0 0,0
18.08.2019 22:00:00 16,0 13,3 12 7 19 10 W 1012,8 0 0,0
18.08.2019 21:00:00 16,4 13,1 11 6 17 9 SSW 1011,7 4 0,0
18.08.2019 20:00:00 17,4 13,3 11 6 23 12 SW 1011,1 53 0,0
18.08.2019 19:00:00 17,6 13,8 14 8 26 14 SW 1011,1 28 0,0
18.08.2019 18:00:00 16,9 14,3 13 7 33 18 W 1010,9 0 0,0
18.08.2019 17:00:00 17,0 15,2 16 8 38 20 W 1010,1 1 0,0
18.08.2019 16:00:00 17,6 16,4 25 13 35 19 W 1008,9 0 0,6
18.08.2019 15:00:00 18,7 17,3 19 10 33 18 W 1007,6 5 0,5
18.08.2019 14:00:00 18,0 16,0 14 8 40 22 WSW 1007,6 0 0,7
18.08.2019 13:00:00 19,5 16,7 29 16 48 26 SSW 1006,3 0 0,0
18.08.2019 12:00:00 19,6 17,0 32 17 55 30 SSW 1005,7 0 0,0
18.08.2019 11:00:00 18,9 16,8 36 19 51 28 SSW 1005,2 0 0,0
18.08.2019 10:00:00 18,1 17,2 26 14 45 24 SSW 1005,0 0 0,0
18.08.2019 09:00:00 17,1 16,5 20 11 32 18 S 1005,4 0 1,0
18.08.2019 08:00:00 15,7 15,1 14 8 19 10 SSE 1006,1 0 0,2
18.08.2019 07:00:00 14,0 13,3 8 4 10 5 ESE 1007,3 0 0,1
18.08.2019 06:00:00 13,4 12,7 4 2 11 6 ESE 1008,4 0 0,0
18.08.2019 05:00:00 13,3 12,6 10 5 14 8 ESE 1009,3 0 0,1
18.08.2019 04:00:00 13,2 12,5 0 0 15 8 N 1009,5 0 1,0
18.08.2019 03:00:00 13,2 12,5 13 7 37 20 NW 1010,2 0 7,6
18.08.2019 02:00:00 16,9 16,3 11 6 21 12 S 1009,0 0 2,2
18.08.2019 01:00:00 16,8 16,2 8 4 15 8 S 1009,3 0 0,9
18.08.2019 00:00:00 16,8 16,0 9 5 20 11 S 1009,5 0 1,3

tt = Température de l'air
td = dewpoint
ff = Vitesse du vent
fx = gusts
dd = Direction du vent
ppp = reduced air pressure
sd = Ensoleillement
rr = Quantités de précipitations

stations d'obs. à proximité